createdAt,value
2023-02-27T00:25:11.967Z,6.43
2023-02-27T00:30:35.538Z,8.25
2023-02-27T00:36:00.627Z,10.13
2023-02-27T00:41:25.163Z,7.78
2023-02-27T00:46:48.025Z,8.53
2023-02-27T00:52:10.661Z,8.40
2023-02-27T00:57:34.605Z,7.97
2023-02-27T01:02:57.235Z,7.30
2023-02-27T01:08:19.992Z,7.72
2023-02-27T01:13:44.426Z,7.43
2023-02-27T01:19:06.935Z,5.03
2023-02-27T01:24:29.594Z,7.80
2023-02-27T01:29:53.472Z,7.50
2023-02-27T01:35:16.215Z,5.97
2023-02-27T01:40:41.132Z,8.23
2023-02-27T01:46:05.391Z,8.98
2023-02-27T01:51:34.632Z,8.25
2023-02-27T01:56:57.350Z,8.17
2023-02-27T02:02:27.931Z,7.13
2023-02-27T02:07:53.036Z,7.43
2023-02-27T02:13:15.991Z,7.35
2023-02-27T02:18:49.697Z,9.02
2023-02-27T02:25:15.430Z,6.97
2023-02-27T02:31:26.027Z,7.10
2023-02-27T02:37:39.031Z,7.40
2023-02-27T02:43:13.734Z,7.07
2023-02-27T02:48:47.261Z,6.60
2023-02-27T02:54:16.707Z,8.30
2023-02-27T02:59:50.206Z,7.35
2023-02-27T03:05:20.583Z,8.90
2023-02-27T03:10:49.167Z,12.13
2023-02-27T03:16:23.679Z,12.30
2023-02-27T03:21:53.559Z,8.83
2023-02-27T03:27:18.976Z,7.72
2023-02-27T03:32:55.292Z,8.10
2023-02-27T03:38:31.291Z,8.10
2023-02-27T03:44:07.784Z,11.77
2023-02-27T03:49:32.079Z,9.23
2023-02-27T03:55:00.582Z,9.15
2023-02-27T04:00:26.741Z,9.03
2023-02-27T04:05:51.019Z,9.55
2023-02-27T04:11:35.104Z,12.20
2023-02-27T04:17:22.485Z,10.47
2023-02-27T04:22:52.343Z,12.68
2023-02-27T04:28:19.019Z,10.10
2023-02-27T04:33:49.168Z,9.00
2023-02-27T04:39:21.860Z,8.18
2023-02-27T04:44:48.738Z,10.77
2023-02-27T04:50:21.886Z,9.88
2023-02-27T04:55:51.384Z,10.53
2023-02-27T05:01:20.885Z,8.77
2023-02-27T05:06:47.945Z,6.95
2023-02-27T05:12:21.238Z,11.63
2023-02-27T05:17:55.367Z,8.23
2023-02-27T05:23:28.707Z,9.80
2023-02-27T05:29:03.197Z,7.35
2023-02-27T05:34:33.388Z,10.90
2023-02-27T05:39:58.346Z,9.07
2023-02-27T05:45:29.365Z,6.47
2023-02-27T05:50:54.813Z,8.77
2023-02-27T05:56:23.264Z,7.60
2023-02-27T06:01:47.790Z,6.13
2023-02-27T06:07:12.135Z,9.27
2023-02-27T06:12:35.068Z,7.68
2023-02-27T06:17:59.577Z,8.27
2023-02-27T06:23:22.573Z,8.90
2023-02-27T06:28:54.320Z,10.30
2023-02-27T06:34:18.465Z,12.30
2023-02-27T06:39:41.794Z,14.80
2023-02-27T06:45:05.997Z,35.13
2023-02-27T06:50:43.792Z,50.92
2023-02-27T06:56:13.078Z,23.15
2023-02-27T07:01:39.653Z,12.23
2023-02-27T07:07:35.109Z,9.98
2023-02-27T07:12:50.530Z,9.93
2023-02-27T07:18:20.772Z,8.80
2023-02-27T07:23:54.698Z,9.27
2023-02-27T07:29:18.700Z,10.83
2023-02-27T07:40:39.990Z,16.23
2023-02-27T07:46:15.866Z,12.88
2023-02-27T08:05:15.801Z,16.17
2023-02-27T09:01:44.122Z,13.40
2023-02-27T09:08:00.438Z,18.80
2023-02-27T09:18:26.389Z,23.83
2023-02-27T09:23:38.647Z,18.17
2023-02-27T09:33:57.323Z,21.93
2023-02-27T10:45:18.280Z,18.80
2023-02-27T12:11:37.614Z,7.53
2023-02-27T12:16:50.345Z,14.55
2023-02-27T12:22:20.180Z,16.92
2023-02-27T12:34:01.713Z,17.88
2023-02-27T12:45:51.676Z,26.42
2023-02-27T13:47:56.847Z,13.63
2023-02-27T14:09:17.808Z,14.30
2023-02-27T14:20:51.950Z,9.35
2023-02-27T15:05:37.478Z,15.60
2023-02-27T15:10:43.595Z,17.77
2023-02-27T15:15:46.111Z,32.40
2023-02-27T15:20:57.958Z,23.58
2023-02-27T15:26:00.768Z,15.90
2023-02-27T15:31:04.217Z,18.33
2023-02-27T15:36:08.712Z,22.33
2023-02-27T15:41:14.296Z,25.77
2023-02-27T15:46:17.212Z,39.95
2023-02-27T15:51:21.097Z,25.35
2023-02-27T15:56:31.520Z,21.43
2023-02-27T16:01:34.999Z,15.80
2023-02-27T16:06:46.721Z,29.65
2023-02-27T16:11:49.725Z,36.53
2023-02-27T16:16:55.748Z,31.02
2023-02-27T16:22:13.543Z,43.70
2023-02-27T16:27:22.291Z,33.28
2023-02-27T16:32:28.679Z,27.95
2023-02-27T16:37:38.424Z,21.90
2023-02-27T16:42:40.997Z,19.00
2023-02-27T16:47:43.571Z,34.60
2023-02-27T16:52:47.491Z,34.28
2023-02-27T16:57:49.889Z,25.15
2023-02-27T17:02:52.361Z,30.88
2023-02-27T17:07:56.024Z,27.60
2023-02-27T17:12:58.662Z,31.37
2023-02-27T17:18:01.150Z,43.25
2023-02-27T17:23:05.132Z,35.47
2023-02-27T17:28:08.671Z,46.45
2023-02-27T17:33:11.021Z,39.47
2023-02-27T17:38:15.137Z,32.30
2023-02-27T17:43:17.655Z,39.75
2023-02-27T17:48:20.145Z,49.13
2023-02-27T17:53:24.769Z,43.47
2023-02-27T17:58:27.747Z,43.47
2023-02-27T18:03:30.234Z,55.83
2023-02-27T18:08:34.709Z,62.45
2023-02-27T18:13:38.589Z,118.95
2023-02-27T18:18:42.946Z,60.70
2023-02-27T18:23:47.866Z,73.45
2023-02-27T18:28:50.262Z,62.60
2023-02-27T18:33:53.324Z,81.15
2023-02-27T18:38:57.723Z,47.38
2023-02-27T18:44:00.197Z,27.77
2023-02-27T18:49:02.865Z,37.50
2023-02-27T18:54:06.811Z,41.83
2023-02-27T18:59:09.534Z,63.38
2023-02-27T19:04:11.882Z,34.10
2023-02-27T19:09:16.060Z,30.15
2023-02-27T19:14:18.595Z,28.42
2023-02-27T19:19:21.011Z,28.90
2023-02-27T19:24:25.555Z,31.42
2023-02-27T19:29:28.423Z,29.85
2023-02-27T19:34:31.606Z,35.13
2023-02-27T19:39:36.117Z,90.40
2023-02-27T19:44:39.129Z,78.47
2023-02-27T19:49:41.513Z,53.75
2023-02-27T19:54:45.328Z,53.63
2023-02-27T19:59:47.870Z,50.75
2023-02-27T20:04:50.315Z,43.47
2023-02-27T20:09:54.131Z,39.60
2023-02-27T20:14:56.808Z,45.17
2023-02-27T20:19:59.324Z,49.65
2023-02-27T20:25:03.045Z,55.13
2023-02-27T20:30:07.480Z,53.17
2023-02-27T20:35:10.943Z,48.10
2023-02-27T20:40:15.199Z,60.42
2023-02-27T20:45:18.452Z,55.85
2023-02-27T20:50:21.012Z,57.60
2023-02-27T20:55:25.268Z,55.38
2023-02-27T21:00:28.786Z,50.33
2023-02-27T21:05:31.207Z,39.60
2023-02-27T21:10:38.893Z,44.38
2023-02-27T21:15:41.524Z,45.85
2023-02-27T21:20:44.941Z,52.60
2023-02-27T21:25:48.911Z,56.77
2023-02-27T21:30:51.621Z,57.83
2023-02-27T21:35:54.164Z,49.72
2023-02-27T21:40:58.161Z,46.55
2023-02-27T21:46:05.118Z,47.25
2023-02-27T21:51:08.248Z,51.37
2023-02-27T21:56:12.915Z,47.60
2023-02-27T22:01:19.864Z,53.15
2023-02-27T22:06:24.145Z,65.00
2023-02-27T22:11:29.572Z,58.47
2023-02-27T22:16:32.299Z,126.10
2023-02-27T22:21:36.145Z,98.70
2023-02-27T22:26:39.991Z,85.60
2023-02-27T22:31:42.636Z,81.15
2023-02-27T22:36:46.642Z,75.55
2023-02-27T22:41:50.809Z,75.30
2023-02-27T22:46:53.174Z,65.88
2023-02-27T22:51:55.561Z,62.05
2023-02-27T22:56:59.478Z,64.50
2023-02-27T23:02:01.974Z,62.70
2023-02-27T23:07:04.543Z,60.33
2023-02-27T23:12:08.402Z,58.47
2023-02-27T23:17:10.946Z,50.80
2023-02-27T23:22:13.301Z,64.18
2023-02-27T23:27:25.842Z,51.10
2023-02-27T23:32:30.742Z,56.87
2023-02-27T23:37:33.260Z,59.42
2023-02-27T23:42:37.153Z,55.70
2023-02-27T23:47:39.630Z,53.90
2023-02-27T23:52:42.103Z,61.33
2023-02-27T23:57:46.304Z,56.57
